Baisy-Thy ULM

EBBY · Brabant Wallon, Wallonia, 比利时

罗盘
风向 的 风向 010° Baisy-Thy ULM 14/32
风: 3 kt, 1 beaufort

2 kt

2 kt
改变
0 ft 1.000 2.000 3.000 4.000 5.000
CAVOK
METAR EBCI 252220Z 01003KT CAVOK 21/14 Q1013 NOSIG

METAR Baisy-Thy ULM - EBBY

Baisy-Thy ULM是,比利时中的超轻型飞机场。 该机场位于纬度50,56804和经度4,43527。 该机场有2条跑道: 14/32 和 5/23. 本场的ICAO机场代码为EBBY。 机场在Bruxelles FIR中。

该航空气象观测是针对布鲁塞尔南部-沙勒罗瓦机场在2024年6月26日 00:20, 当地时间进行的。

机场观察

风向为010°,速度为3 kt。

天气为CAVOK。这意味着在5.000 ft或MSA(最低安全高度)以下(以较高者为准)以下没有云。这也意味着没有观测到积雨云或高耸的积云,可见度为10 km 或者更多或更高。此外,不会有雾,降雨或其他重要天气。

温度和风寒是21 °C。 露点为14 °C,相对湿度为64%。 海平面上的气压为1013 hPa (QNH)。

白天

今天,太阳从05:31升起,在21:58降落。 这适用于Baisy-Thy ULM,世界夏令时可能有所不同。 当地时间与世界标准时间之间的时差为+2 小时。 夏令时目前正在进行中。

公司介绍

在这个机场,你可以找到飞行学校。 本场上唯一已知的公司是ULM Baisy-Thy Flightschool asbl。

体会

到Vliegles.nl去找飞行课程,跳伞和其他飞行体验。 浏览页面,了解Baisy-Thy ULM附近所有可用的活动。 你也可以使用搜索功能来寻找你所在地附近的特定飞行课程、跳伞或其他飞行体验。

跑道

Id 标题 侧风 逆风 侧风 %
14/32 136°-316° 2 kt 2 kt 81 %
5/23 047°-227° 2 kt 2 kt 60 %

逆风成分最大的方向会被突出显示,并用于横风计算。 这并不一定意味着这个方向在使用。

温度 & 天气

温度 21 °C
露点 14 °C
相对湿度 64%
Kp-index 1 (0-9)

白天

日出
05:31 (4:28)
中午
13:44
日落
21:57

小工具

你想在你的网站上有一个关于Baisy-Thy ULM的当前航空天气(METAR)的小部件吗?

显示HTML代码
报告变更